AVA8543 SKBO-SKAR
Flight info
| Callsign | AVA8543 |
|---|---|
| Flight time | 0h 25m |
| Altitude | 18000 |
| Route | ISNOX2S ISNOX ISNOX1J |
| Aircraft | A320/M-SDE3FGHIRWY/LB1 |
Departure
| Time | 2026-05-04 22:20 |
|---|---|
| Airport | El Dorado International Airport (SKBO) |
Arrival
| Time | 2026-05-04 22:46 |
|---|---|
| Airport | El Eden Airport (SKAR) |
| Time | Latitude | Longitude | Altitude | Speed | Heading |
|---|---|---|---|---|---|
| 2026-05-04 21:51 | 4.69785 | -74.14716 | 8373 ft | 0 kts | 217° |
| 2026-05-04 22:11 | 4.69798 | -74.14707 | 8370 ft | 4 kts | 219° |
| 2026-05-04 22:12 | 4.69815 | -74.14693 | 8373 ft | 4 kts | 241° |
| 2026-05-04 22:12 | 4.69816 | -74.14671 | 8373 ft | 4 kts | 296° |
| 2026-05-04 22:12 | 4.69802 | -74.14648 | 8372 ft | 3 kts | 307° |
| 2026-05-04 22:12 | 4.69791 | -74.14634 | 8373 ft | 0 kts | 307° |
| 2026-05-04 22:15 | 4.69795 | -74.14639 | 8373 ft | 4 kts | 307° |
| 2026-05-04 22:15 | 4.69829 | -74.14684 | 8370 ft | 12 kts | 307° |
| 2026-05-04 22:15 | 4.69896 | -74.14772 | 8373 ft | 19 kts | 308° |
| 2026-05-04 22:15 | 4.69933 | -74.14883 | 8372 ft | 16 kts | 235° |
| 2026-05-04 22:16 | 4.69860 | -74.14959 | 8373 ft | 15 kts | 264° |
| 2026-05-04 22:16 | 4.69924 | -74.15065 | 8373 ft | 22 kts | 307° |
| 2026-05-04 22:16 | 4.70033 | -74.15210 | 8373 ft | 30 kts | 307° |
| 2026-05-04 22:16 | 4.70162 | -74.15380 | 8373 ft | 30 kts | 308° |
| 2026-05-04 22:17 | 4.70286 | -74.15545 | 8373 ft | 30 kts | 307° |
| 2026-05-04 22:17 | 4.70412 | -74.15709 | 8373 ft | 30 kts | 308° |
| 2026-05-04 22:17 | 4.70535 | -74.15874 | 8373 ft | 30 kts | 306° |
| 2026-05-04 22:17 | 4.70659 | -74.16039 | 8373 ft | 30 kts | 308° |
| 2026-05-04 22:18 | 4.70784 | -74.16202 | 8374 ft | 30 kts | 307° |
| 2026-05-04 22:18 | 4.70910 | -74.16367 | 8374 ft | 30 kts | 308° |
| 2026-05-04 22:18 | 4.71035 | -74.16533 | 8371 ft | 30 kts | 307° |
| 2026-05-04 22:18 | 4.71161 | -74.16699 | 8372 ft | 30 kts | 308° |
| 2026-05-04 22:19 | 4.71251 | -74.16840 | 8371 ft | 15 kts | 268° |
| 2026-05-04 22:19 | 4.71215 | -74.16875 | 8373 ft | 7 kts | 207° |
| 2026-05-04 22:19 | 4.71116 | -74.16896 | 8373 ft | 20 kts | 174° |
| 2026-05-04 22:19 | 4.70990 | -74.16830 | 8370 ft | 25 kts | 126° |
| 2026-05-04 22:20 | 4.70765 | -74.16531 | 8375 ft | 86 kts | 127° |
| 2026-05-04 22:20 | 4.70280 | -74.15891 | 8373 ft | 143 kts | 127° |
| 2026-05-04 22:20 | 4.69578 | -74.14969 | 8434 ft | 182 kts | 126° |
| 2026-05-04 22:20 | 4.68799 | -74.13972 | 9178 ft | 181 kts | 128° |
| 2026-05-04 22:21 | 4.67776 | -74.13255 | 9761 ft | 185 kts | 169° |
| 2026-05-04 22:21 | 4.66475 | -74.13481 | 9959 ft | 206 kts | 214° |
| 2026-05-04 22:21 | 4.65451 | -74.14588 | 10121 ft | 228 kts | 233° |
| 2026-05-04 22:21 | 4.64529 | -74.15973 | 10295 ft | 248 kts | 237° |
| 2026-05-04 22:22 | 4.63592 | -74.17476 | 10693 ft | 257 kts | 237° |
| 2026-05-04 22:22 | 4.62633 | -74.19008 | 11307 ft | 261 kts | 236° |
| 2026-05-04 22:22 | 4.61687 | -74.20576 | 11910 ft | 266 kts | 246° |
| 2026-05-04 22:22 | 4.61220 | -74.22378 | 12534 ft | 270 kts | 259° |
| 2026-05-04 22:23 | 4.60882 | -74.24214 | 13165 ft | 273 kts | 259° |
| 2026-05-04 22:23 | 4.60529 | -74.26094 | 13816 ft | 276 kts | 258° |
| 2026-05-04 22:23 | 4.59986 | -74.27940 | 14387 ft | 278 kts | 242° |
| 2026-05-04 22:23 | 4.59109 | -74.29675 | 14947 ft | 281 kts | 242° |
| 2026-05-04 22:24 | 4.58213 | -74.31424 | 15510 ft | 284 kts | 241° |
| 2026-05-04 22:24 | 4.57302 | -74.33194 | 16045 ft | 288 kts | 241° |
| 2026-05-04 22:24 | 4.56397 | -74.34999 | 16542 ft | 295 kts | 246° |
| 2026-05-04 22:24 | 4.55974 | -74.37028 | 16977 ft | 298 kts | 265° |
| 2026-05-04 22:25 | 4.55821 | -74.39102 | 17552 ft | 299 kts | 265° |
| 2026-05-04 22:25 | 4.55664 | -74.41226 | 17769 ft | 315 kts | 265° |
| 2026-05-04 22:25 | 4.55500 | -74.43489 | 17801 ft | 337 kts | 265° |
| 2026-05-04 22:25 | 4.55322 | -74.45912 | 17761 ft | 360 kts | 265° |
| 2026-05-04 22:26 | 4.55131 | -74.48485 | 17749 ft | 381 kts | 265° |
| 2026-05-04 22:26 | 4.54932 | -74.51189 | 17690 ft | 394 kts | 265° |
| 2026-05-04 22:26 | 4.54733 | -74.53945 | 17694 ft | 397 kts | 265° |
| 2026-05-04 22:26 | 4.54533 | -74.56710 | 17688 ft | 398 kts | 265° |
| 2026-05-04 22:27 | 4.54330 | -74.59481 | 17675 ft | 399 kts | 265° |
| 2026-05-04 22:27 | 4.54128 | -74.62255 | 17661 ft | 399 kts | 265° |
| 2026-05-04 22:27 | 4.53925 | -74.65037 | 17626 ft | 407 kts | 265° |
| 2026-05-04 22:27 | 4.53714 | -74.67933 | 17617 ft | 426 kts | 265° |
| 2026-05-04 22:28 | 4.53495 | -74.70938 | 17609 ft | 437 kts | 265° |
| 2026-05-04 22:28 | 4.53273 | -74.73987 | 17601 ft | 439 kts | 265° |
| 2026-05-04 22:28 | 4.53052 | -74.77042 | 17598 ft | 440 kts | 265° |
| 2026-05-04 22:28 | 4.52834 | -74.80061 | 17605 ft | 440 kts | 265° |
| 2026-05-04 22:29 | 4.52610 | -74.83161 | 17606 ft | 440 kts | 265° |
| 2026-05-04 22:29 | 4.52387 | -74.86219 | 17608 ft | 440 kts | 265° |
| 2026-05-04 22:29 | 4.52163 | -74.89236 | 17613 ft | 439 kts | 265° |
| 2026-05-04 22:29 | 4.51938 | -74.92295 | 17621 ft | 440 kts | 265° |
| 2026-05-04 22:30 | 4.51717 | -74.95355 | 17628 ft | 440 kts | 265° |
| 2026-05-04 22:30 | 4.51495 | -74.98412 | 17639 ft | 440 kts | 265° |
| 2026-05-04 22:30 | 4.51271 | -75.01472 | 17660 ft | 440 kts | 265° |
| 2026-05-04 22:30 | 4.51045 | -75.04528 | 17658 ft | 440 kts | 265° |
| 2026-05-04 22:31 | 4.50820 | -75.07583 | 17658 ft | 440 kts | 265° |
| 2026-05-04 22:31 | 4.50596 | -75.10637 | 17660 ft | 440 kts | 266° |
| 2026-05-04 22:31 | 4.50373 | -75.13693 | 17660 ft | 440 kts | 266° |
| 2026-05-04 22:31 | 4.50150 | -75.16749 | 17663 ft | 440 kts | 266° |
| 2026-05-04 22:32 | 4.49925 | -75.19806 | 17667 ft | 440 kts | 266° |
| 2026-05-04 22:32 | 4.49698 | -75.22864 | 17678 ft | 440 kts | 266° |
| 2026-05-04 22:32 | 4.49472 | -75.25922 | 17687 ft | 440 kts | 266° |
| 2026-05-04 22:32 | 4.49247 | -75.28979 | 17699 ft | 440 kts | 266° |
| 2026-05-04 22:33 | 4.49024 | -75.32018 | 17699 ft | 429 kts | 266° |
| 2026-05-04 22:33 | 4.48809 | -75.34948 | 17713 ft | 417 kts | 266° |
| 2026-05-04 22:33 | 4.48597 | -75.37800 | 17748 ft | 414 kts | 266° |
| 2026-05-04 22:33 | 4.48385 | -75.40674 | 17763 ft | 413 kts | 266° |
| 2026-05-04 22:34 | 4.48172 | -75.43541 | 17776 ft | 411 kts | 265° |
| 2026-05-04 22:34 | 4.47966 | -75.46340 | 17676 ft | 392 kts | 265° |
| 2026-05-04 22:34 | 4.47773 | -75.48978 | 17538 ft | 367 kts | 265° |
| 2026-05-04 22:34 | 4.47593 | -75.51446 | 17405 ft | 344 kts | 265° |
| 2026-05-04 22:35 | 4.47422 | -75.53762 | 17273 ft | 323 kts | 265° |
| 2026-05-04 22:35 | 4.47363 | -75.55948 | 17138 ft | 304 kts | 275° |
| 2026-05-04 22:35 | 4.47661 | -75.58001 | 16765 ft | 295 kts | 279° |
| 2026-05-04 22:35 | 4.48003 | -75.60048 | 16007 ft | 301 kts | 280° |
| 2026-05-04 22:36 | 4.48357 | -75.62132 | 15252 ft | 306 kts | 280° |
| 2026-05-04 22:36 | 4.48813 | -75.64213 | 14587 ft | 303 kts | 294° |
| 2026-05-04 22:36 | 4.50039 | -75.65857 | 14051 ft | 294 kts | 326° |
| 2026-05-04 22:36 | 4.51887 | -75.66575 | 13457 ft | 284 kts | 360° |
| 2026-05-04 22:37 | 4.53824 | -75.66371 | 12805 ft | 279 kts | 14° |
| 2026-05-04 22:37 | 4.55686 | -75.65905 | 12353 ft | 271 kts | 18° |
| 2026-05-04 22:37 | 4.57444 | -75.65396 | 11982 ft | 262 kts | 18° |
| 2026-05-04 22:37 | 4.59170 | -75.64894 | 11621 ft | 254 kts | 18° |
| 2026-05-04 22:38 | 4.60848 | -75.64424 | 11273 ft | 247 kts | 17° |
| 2026-05-04 22:38 | 4.62483 | -75.63985 | 10955 ft | 240 kts | 16° |
| 2026-05-04 22:38 | 4.64077 | -75.63569 | 10621 ft | 234 kts | 16° |
| 2026-05-04 22:38 | 4.65644 | -75.63171 | 10299 ft | 231 kts | 15° |
| 2026-05-04 22:39 | 4.67221 | -75.62915 | 10046 ft | 229 kts | 359° |
| 2026-05-04 22:39 | 4.68744 | -75.63315 | 9797 ft | 229 kts | 325° |
| 2026-05-04 22:39 | 4.69719 | -75.64531 | 9445 ft | 225 kts | 291° |
| 2026-05-04 22:39 | 4.69977 | -75.66061 | 9128 ft | 223 kts | 265° |
| 2026-05-04 22:40 | 4.69562 | -75.67543 | 8829 ft | 222 kts | 247° |
| 2026-05-04 22:40 | 4.69175 | -75.68491 | 8624 ft | 222 kts | 247° |
| 2026-05-04 22:40 | 4.68547 | -75.69899 | 8303 ft | 221 kts | 238° |
| 2026-05-04 22:40 | 4.67541 | -75.71002 | 8134 ft | 210 kts | 217° |
| 2026-05-04 22:41 | 4.66266 | -75.71656 | 7912 ft | 204 kts | 196° |
| 2026-05-04 22:41 | 4.64894 | -75.71987 | 7635 ft | 200 kts | 193° |
| 2026-05-04 22:41 | 4.63548 | -75.72303 | 7354 ft | 197 kts | 193° |
| 2026-05-04 22:41 | 4.62222 | -75.72615 | 7086 ft | 194 kts | 193° |
| 2026-05-04 22:42 | 4.60916 | -75.72923 | 6853 ft | 192 kts | 193° |
| 2026-05-04 22:42 | 4.59618 | -75.73228 | 6607 ft | 191 kts | 193° |
| 2026-05-04 22:42 | 4.58342 | -75.73529 | 6366 ft | 190 kts | 193° |
| 2026-05-04 22:42 | 4.57076 | -75.73827 | 6117 ft | 181 kts | 193° |
| 2026-05-04 22:43 | 4.55910 | -75.74102 | 5899 ft | 164 kts | 193° |
| 2026-05-04 22:43 | 4.54829 | -75.74356 | 5680 ft | 156 kts | 193° |
| 2026-05-04 22:43 | 4.53785 | -75.74602 | 5483 ft | 153 kts | 193° |
| 2026-05-04 22:43 | 4.52757 | -75.74844 | 5279 ft | 151 kts | 193° |
| 2026-05-04 22:44 | 4.51736 | -75.75085 | 5097 ft | 150 kts | 193° |
| 2026-05-04 22:44 | 4.50717 | -75.75325 | 4906 ft | 150 kts | 193° |
| 2026-05-04 22:44 | 4.49706 | -75.75563 | 4712 ft | 149 kts | 193° |
| 2026-05-04 22:44 | 4.48703 | -75.75799 | 4518 ft | 147 kts | 193° |
| 2026-05-04 22:45 | 4.47710 | -75.76031 | 4321 ft | 146 kts | 193° |
| 2026-05-04 22:45 | 4.45750 | -75.76493 | 3988 ft | 134 kts | 193° |
| 2026-05-04 22:45 | 4.45011 | -75.76674 | 3982 ft | 84 kts | 193° |
| 2026-05-04 22:46 | 4.44567 | -75.76780 | 3978 ft | 58 kts | 193° |
| 2026-05-04 22:46 | 4.44274 | -75.76850 | 3977 ft | 32 kts | 194° |
| 2026-05-04 22:46 | 4.44175 | -75.76856 | 3985 ft | 9 kts | 173° |
| 2026-05-04 22:46 | 4.44171 | -75.76870 | 3979 ft | 1 kts | 347° |
| 2026-05-04 22:47 | 4.44186 | -75.76869 | 3978 ft | 2 kts | 2° |
| 2026-05-04 22:47 | 4.44228 | -75.76861 | 3981 ft | 12 kts | 13° |
| 2026-05-04 22:47 | 4.44355 | -75.76831 | 3976 ft | 22 kts | 13° |
| 2026-05-04 22:47 | 4.44519 | -75.76793 | 3976 ft | 27 kts | 12° |
| 2026-05-04 22:48 | 4.44715 | -75.76745 | 3979 ft | 30 kts | 13° |
| 2026-05-04 22:48 | 4.44919 | -75.76695 | 3981 ft | 30 kts | 13° |
| 2026-05-04 22:48 | 4.45124 | -75.76646 | 3981 ft | 29 kts | 13° |
| 2026-05-04 22:48 | 4.45227 | -75.76676 | 3985 ft | 11 kts | 311° |
| 2026-05-04 22:49 | 4.45275 | -75.76713 | 3984 ft | 7 kts | 303° |
| 2026-05-04 22:49 | 4.45284 | -75.76747 | 3983 ft | 2 kts | 283° |
| 2026-05-04 22:49 | 4.45284 | -75.76748 | 3984 ft | 0 kts | 284° |